Gmund, Austria
Current Conditions -  °F | °C
As of 6:50 AM on Friday 31 Oct 2014 (Local Time) from LOWL Reporting Station
Light Fog Light Fog  
Wind Chill: 45°   Ceiling: 200
Heat Index: 45°   Visibility: 1.1mi
Dew Point: 45°   Wind: 2mph
Humidity: 100%   Direction: 320°NW
Pressure: 30.33"   Gusts: NA
Location:  48.77°N, 14.99°E
Report Text: LOWL 310450Z 32002KT 1800 BCFG BKN002 07/07 Q1027 TEMPO 0800
Loading
Personal Weather Stations






























Interactive Weather Map
Tropical Storm Tracking
New forecast layout! Learn more

10-Day Weather Forecast

Advertisements
Track Severe Weather on mobile